Time;durP1;ratioP1;P1;durP2;ratioP2;P2;SDS_P1;SDS_P2;PMS_P1;PMS_P2;Temp;Humidity;BMP_temperature;BMP_pressure;BME280_temperature;BME280_humidity;BME280_pressure;Samples;Min_cycle;Max_cycle;Signal;HPM_P1;HPM_P2
2022/06/14 00:00:53;;;;;;;2.92;1.50;;;;;;;-141.50;100.00;63355.56;5052152;28;20436;-79
2022/06/14 00:02:27;;;;;;;7.90;1.73;;;;;;;-141.50;100.00;63355.56;5053567;28;20112;-79
2022/06/14 00:04:54;;;;;;;3.78;1.88;;;;;;;-141.50;100.00;63355.56;5053500;28;20080;-80
2022/06/14 00:07:20;;;;;;;4.40;1.50;;;;;;;-141.50;100.00;63355.56;5052119;28;20110;-78
2022/06/14 00:09:47;;;;;;;7.25;1.60;;;;;;;-141.50;100.00;63355.56;5050217;28;20118;-79
2022/06/14 00:12:14;;;;;;;5.80;1.50;;;;;;;-141.50;100.00;63355.56;5049173;28;20113;-79
2022/06/14 00:14:42;;;;;;;4.50;1.25;;;;;;;-141.50;100.00;63355.56;5049264;28;20053;-78
2022/06/14 00:17:10;;;;;;;3.63;1.40;;;;;;;-141.50;100.00;63355.56;5054151;28;20057;-79
2022/06/14 00:19:39;;;;;;;4.63;1.63;;;;;;;-141.50;100.00;63355.56;5071099;28;20489;-78
2022/06/14 00:22:07;;;;;;;7.80;1.85;;;;;;;-141.50;100.00;63355.56;5077564;28;20049;-78
2022/06/14 00:24:35;;;;;;;6.88;2.42;;;;;;;-141.50;100.00;63355.56;5083081;28;20067;-79
2022/06/14 00:27:01;;;;;;;7.18;1.83;;;;;;;-141.50;100.00;63355.56;5083799;28;20048;-79
2022/06/14 00:29:31;;;;;;;7.82;2.03;;;;;;;-141.50;100.00;63355.56;5057304;28;20087;-80
2022/06/14 00:31:58;;;;;;;5.72;2.00;;;;;;;-141.50;100.00;63355.56;5053043;28;20502;-81
2022/06/14 00:34:24;;;;;;;8.00;2.33;;;;;;;-141.50;100.00;63355.56;5076436;28;20064;-79
2022/06/14 00:36:56;;;;;;;5.25;1.80;;;;;;;-141.50;100.00;63355.56;5079620;28;20075;-80
2022/06/14 00:39:23;;;;;;;9.95;2.15;;;;;;;-141.50;100.00;63355.56;5071051;28;20513;-80
2022/06/14 00:41:53;;;;;;;7.07;2.13;;;;;;;-141.50;100.00;63355.56;5070890;28;20049;-80
2022/06/14 00:44:23;;;;;;;5.47;1.80;;;;;;;-141.50;100.00;63355.56;5069556;28;20080;-81
2022/06/14 00:47:14;;;;;;;6.57;1.63;;;;;;;-141.50;100.00;63355.56;5052712;28;20071;-78
2022/06/14 00:49:56;;;;;;;6.25;1.67;;;;;;;-141.50;100.00;63355.56;5051927;28;20052;-79
2022/06/14 00:52:33;;;;;;;5.28;1.70;;;;;;;-141.50;100.00;63355.56;5072284;28;20087;-79
2022/06/14 00:55:07;;;;;;;5.63;1.92;;;;;;;-141.50;100.00;63355.56;5071413;28;20498;-79
2022/06/14 00:58:09;;;;;;;7.32;1.58;;;;;;;-141.50;100.00;63355.56;5070449;28;20052;-80
2022/06/14 01:01:02;;;;;;;4.05;1.75;;;;;;;-141.50;100.00;63355.56;5053582;28;20453;-79
2022/06/14 01:03:42;;;;;;;3.80;1.42;;;;;;;-141.50;100.00;63355.56;5079488;28;20028;-79
2022/06/14 01:06:17;;;;;;;4.88;1.80;;;;;;;-141.50;100.00;63355.56;5091009;28;20058;-79
2022/06/14 01:08:52;;;;;;;5.30;1.80;;;;;;;-141.50;100.00;63355.56;5073606;28;20257;-78
2022/06/14 01:12:14;;;;;;;7.30;2.00;;;;;;;-141.50;100.00;63355.56;5058020;28;20083;-81
2022/06/14 01:15:13;;;;;;;6.35;1.90;;;;;;;-141.50;100.00;63355.56;4989196;28;20097;-80
2022/06/14 01:17:43;;;;;;;9.98;1.92;;;;;;;-141.50;100.00;63355.56;5028480;28;20575;-80
2022/06/14 01:20:16;;;;;;;4.95;1.98;;;;;;;-141.50;100.00;63355.56;5071476;28;20464;-80
2022/06/14 01:22:44;;;;;;;6.53;1.92;;;;;;;-141.50;100.00;63355.56;5052826;28;20105;-80
2022/06/14 01:25:11;;;;;;;6.70;1.83;;;;;;;-141.50;100.00;63355.56;5052254;28;20052;-79
2022/06/14 01:27:40;;;;;;;4.28;2.10;;;;;;;-141.50;100.00;63355.56;5070048;28;20119;-79
2022/06/14 01:30:31;;;;;;;4.25;1.88;;;;;;;-141.50;100.00;63355.56;5052409;28;20060;-81
2022/06/14 01:33:07;;;;;;;8.57;1.98;;;;;;;-141.50;100.00;63355.56;5070688;28;20049;-79
2022/06/14 01:36:05;;;;;;;6.10;2.20;;;;;;;-141.50;100.00;63355.56;5069867;28;20059;-78
2022/06/14 01:38:32;;;;;;;4.65;1.75;;;;;;;-141.50;100.00;63355.56;5053945;28;20108;-80
2022/06/14 01:41:16;;;;;;;6.43;1.90;;;;;;;-141.50;100.00;63355.56;5071084;28;20095;-80
2022/06/14 01:43:47;;;;;;;7.18;1.83;;;;;;;-141.50;100.00;63355.56;5053008;28;20044;-80
2022/06/14 01:46:40;;;;;;;4.35;1.90;;;;;;;-141.50;100.00;63355.56;5072347;28;20084;-78
2022/06/14 01:52:13;;;;;;;5.75;1.92;;;;;;;-141.50;100.00;63355.56;5086066;28;20048;-78
2022/06/14 01:54:52;;;;;;;6.93;2.25;;;;;;;-141.50;100.00;63355.56;5076152;28;20106;-80
2022/06/14 01:57:44;;;;;;;6.68;2.10;;;;;;;-141.50;100.00;63355.56;5073914;28;20074;-80
2022/06/14 02:00:20;;;;;;;5.07;1.90;;;;;;;-141.50;100.00;63355.56;5055244;28;20053;-80
2022/06/14 02:06:15;;;;;;;17.33;2.70;;;;;;;-141.50;100.00;63355.56;5070788;28;20088;-79
2022/06/14 02:09:16;;;;;;;9.98;2.00;;;;;;;-141.50;100.00;63355.56;5056715;28;20094;-79
2022/06/14 02:11:43;;;;;;;9.18;2.10;;;;;;;-141.50;100.00;63355.56;5055224;28;20510;-80
2022/06/14 02:14:34;;;;;;;6.00;2.25;;;;;;;-141.50;100.00;63355.56;5073858;28;20057;-80
2022/06/14 02:17:07;;;;;;;5.43;2.10;;;;;;;-141.50;100.00;63355.56;5055412;28;20458;-80
2022/06/14 02:19:43;;;;;;;7.72;2.22;;;;;;;-141.50;100.00;63355.56;5074138;28;20048;-80
2022/06/14 02:22:16;;;;;;;5.90;2.20;;;;;;;-141.50;100.00;63355.56;5041638;28;20078;-81
2022/06/14 02:24:48;;;;;;;5.38;2.10;;;;;;;-141.50;100.00;63355.56;5075403;28;20418;-80
2022/06/14 02:27:33;;;;;;;6.43;2.10;;;;;;;-141.50;100.00;63355.56;5072155;28;20111;-81
2022/06/14 02:30:16;;;;;;;5.82;2.30;;;;;;;-141.50;100.00;63355.56;5056088;28;20075;-80
2022/06/14 02:32:59;;;;;;;7.13;2.17;;;;;;;-141.50;100.00;63355.56;5055127;28;20505;-79
2022/06/14 02:35:33;;;;;;;6.43;1.80;;;;;;;-141.50;100.00;63355.56;5075030;28;20063;-80
2022/06/14 02:38:19;;;;;;;5.13;2.40;;;;;;;-141.50;100.00;63355.56;5059769;28;20063;-77
2022/06/14 02:40:51;;;;;;;6.55;2.30;;;;;;;-141.50;100.00;63355.56;5083616;28;20075;-78
2022/06/14 02:43:29;;;;;;;9.23;2.58;;;;;;;-141.50;100.00;63355.56;5083308;28;20121;-79
2022/06/14 02:46:34;;;;;;;6.97;2.22;;;;;;;-141.50;100.00;63355.56;5082723;28;20075;-80
2022/06/14 02:49:10;;;;;;;5.50;2.10;;;;;;;-141.50;100.00;63355.56;5074249;28;20072;-80
2022/06/14 02:51:40;;;;;;;5.68;2.20;;;;;;;-141.50;100.00;63355.56;5071585;28;20080;-80
2022/06/14 02:54:24;;;;;;;3.20;1.88;;;;;;;-141.50;100.00;63355.56;5077689;28;20075;-79
2022/06/14 02:56:53;;;;;;;6.35;2.45;;;;;;;-141.50;100.00;63355.56;5075477;28;20075;-80
2022/06/14 02:59:29;;;;;;;14.27;3.17;;;;;;;-141.50;100.00;63355.56;5072292;28;20139;-80
2022/06/14 03:02:03;;;;;;;9.38;2.95;;;;;;;-141.50;100.00;63355.56;5072940;28;20059;-79
2022/06/14 03:04:38;;;;;;;10.57;2.53;;;;;;;-141.50;100.00;63355.56;5074386;28;20072;-80
2022/06/14 03:07:26;;;;;;;8.52;2.90;;;;;;;-141.50;100.00;63355.56;5071945;28;20091;-80
2022/06/14 03:09:53;;;;;;;6.53;2.25;;;;;;;-141.50;100.00;63355.56;5072706;28;20049;-78
2022/06/14 03:12:23;;;;;;;9.10;2.72;;;;;;;-141.50;100.00;63355.56;5074623;28;20048;-76
2022/06/14 03:15:08;;;;;;;5.90;2.70;;;;;;;-141.50;100.00;63355.56;5055464;28;20075;-79
2022/06/14 03:17:46;;;;;;;7.57;2.30;;;;;;;-141.50;100.00;63355.56;5072030;28;20098;-79
2022/06/14 03:20:21;;;;;;;8.50;2.40;;;;;;;-141.50;100.00;63355.56;5071723;28;20070;-78
2022/06/14 03:23:07;;;;;;;5.45;2.55;;;;;;;-141.50;100.00;63355.56;5072302;28;20044;-79
2022/06/14 03:25:45;;;;;;;8.77;2.50;;;;;;;-141.50;100.00;63355.56;5055847;28;20114;-78
2022/06/14 03:28:21;;;;;;;6.75;2.67;;;;;;;-141.50;100.00;63355.56;5080956;28;20053;-80
2022/06/14 03:30:51;;;;;;;;;;;;;;;-141.50;100.00;63355.56;5072840;28;20048;-80
2022/06/14 03:33:24;;;;;;;9.20;2.85;;;;;;;-141.50;100.00;63355.56;5071770;28;20373;-81
2022/06/14 03:35:53;;;;;;;8.82;2.30;;;;;;;-141.50;100.00;63355.56;5072799;28;20626;-81
2022/06/14 03:38:35;;;;;;;4.68;1.95;;;;;;;-141.50;100.00;63355.56;5073894;28;20098;-81
2022/06/14 03:41:04;;;;;;;6.13;2.20;;;;;;;-141.50;100.00;63355.56;5072979;28;20053;-81
2022/06/14 03:43:34;;;;;;;6.40;2.25;;;;;;;-141.50;100.00;63355.56;5070848;28;20144;-79
2022/06/14 03:46:19;;;;;;;9.05;2.40;;;;;;;-141.50;100.00;63355.56;5071435;28;20257;-80
2022/06/14 03:48:50;;;;;;;9.45;2.50;;;;;;;-141.50;100.00;63355.56;5073557;28;20122;-81
2022/06/14 03:51:43;;;;;;;11.50;2.20;;;;;;;-141.50;100.00;63355.56;5070719;28;20422;-81
2022/06/14 03:54:36;;;;;;;7.80;2.65;;;;;;;-141.50;100.00;63355.56;5071657;28;20060;-80
2022/06/14 03:57:29;;;;;;;8.18;2.42;;;;;;;-141.50;100.00;63355.56;5071646;28;20076;-79
2022/06/14 04:00:02;;;;;;;6.57;2.30;;;;;;;-141.50;100.00;63355.56;5056377;28;20048;-80
2022/06/14 04:02:53;;;;;;;7.53;2.22;;;;;;;-141.50;100.00;63355.56;5054007;28;20098;-80
2022/06/14 04:05:42;;;;;;;9.55;2.33;;;;;;;-141.50;100.00;63355.56;5072073;28;20135;-78
2022/06/14 04:08:38;;;;;;;9.10;2.53;;;;;;;-141.50;100.00;63355.56;5054399;28;20106;-80
2022/06/14 04:11:18;;;;;;;5.28;2.03;;;;;;;-141.50;100.00;63355.56;5040450;28;20502;-80
2022/06/14 04:14:14;;;;;;;8.35;2.30;;;;;;;-141.50;100.00;63355.56;5071623;28;20117;-80
2022/06/14 04:16:43;;;;;;;7.75;2.38;;;;;;;-141.50;100.00;63355.56;5071668;28;20481;-80
2022/06/14 04:19:22;;;;;;;8.45;2.40;;;;;;;-141.50;100.00;63355.56;5071543;28;20388;-78
2022/06/14 04:22:23;;;;;;;7.45;2.42;;;;;;;-141.50;100.00;63355.56;5063079;28;20049;-79
2022/06/14 04:25:06;;;;;;;8.68;2.50;;;;;;;-141.50;100.00;63355.56;5057037;28;20135;-81
2022/06/14 04:27:48;;;;;;;8.40;2.65;;;;;;;-141.50;100.00;63355.56;5076115;28;20118;-79
2022/06/14 04:30:54;;;;;;;6.40;2.83;;;;;;;-141.50;100.00;63355.56;5077518;28;20399;-80
2022/06/14 04:33:29;;;;;;;5.97;2.95;;;;;;;-141.50;100.00;63355.56;4995837;28;20121;-77
2022/06/14 04:36:02;;;;;;;8.73;3.07;;;;;;;-141.50;100.00;63355.56;5074690;28;20726;-80
2022/06/14 04:38:38;;;;;;;13.55;3.25;;;;;;;-141.50;100.00;63355.56;5077548;28;20056;-80
2022/06/14 04:41:13;;;;;;;8.13;2.63;;;;;;;-141.50;100.00;63355.56;5073868;28;20080;-79
2022/06/14 04:44:26;;;;;;;6.43;2.60;;;;;;;-141.50;100.00;63355.56;5073536;28;20063;-79
2022/06/14 04:47:08;;;;;;;10.75;3.20;;;;;;;-141.50;100.00;63355.56;5073215;28;20135;-81
2022/06/14 04:50:02;;;;;;;7.70;2.67;;;;;;;-141.50;100.00;63355.56;5071555;28;20044;-79
2022/06/14 04:52:46;;;;;;;10.13;2.85;;;;;;;-141.50;100.00;63355.56;5071037;28;20157;-80
2022/06/14 04:55:25;;;;;;;7.97;2.75;;;;;;;-141.50;100.00;63355.56;5072579;28;20399;-81
2022/06/14 04:58:14;;;;;;;11.07;3.00;;;;;;;-141.50;100.00;63355.56;5055506;28;20087;-78
2022/06/14 05:00:53;;;;;;;10.90;2.63;;;;;;;-141.50;100.00;63355.56;5081094;28;20074;-78
2022/06/14 05:03:30;;;;;;;6.45;2.30;;;;;;;-141.50;100.00;63355.56;5085442;28;20095;-77
2022/06/14 05:06:02;;;;;;;9.35;2.67;;;;;;;-141.50;100.00;63355.56;5068490;28;20404;-77
2022/06/14 05:08:39;;;;;;;6.28;2.20;;;;;;;-141.50;100.00;63355.56;5090302;28;20081;-79
2022/06/14 05:11:11;;;;;;;12.60;2.72;;;;;;;-141.50;100.00;63355.56;5067627;28;20048;-79
2022/06/14 05:14:08;;;;;;;6.47;1.92;;;;;;;-141.50;100.00;63355.56;5065666;28;20126;-77
2022/06/14 05:16:35;;;;;;;10.40;1.77;;;;;;;-141.50;100.00;63355.56;5081710;28;20052;-80
2022/06/14 05:19:13;;;;;;;8.52;1.95;;;;;;;-141.50;100.00;63355.56;5067801;28;20140;-80
2022/06/14 05:21:47;;;;;;;6.63;1.73;;;;;;;-141.50;100.00;63355.56;5089468;28;20075;-77
2022/06/14 05:24:15;;;;;;;7.70;1.92;;;;;;;-141.50;100.00;63355.56;5094530;28;20040;-79
2022/06/14 05:26:54;;;;;;;6.95;1.95;;;;;;;-141.50;100.00;63355.56;5086248;28;20548;-78
2022/06/14 05:29:45;;;;;;;6.43;1.70;;;;;;;-141.50;100.00;63355.56;5089464;28;20063;-79
2022/06/14 05:32:35;;;;;;;8.85;1.70;;;;;;;-141.50;100.00;63355.56;5094490;28;20078;-79
2022/06/14 05:35:12;;;;;;;7.88;1.95;;;;;;;-141.50;100.00;63355.56;5094323;28;20056;-80
2022/06/14 05:37:54;;;;;;;7.80;2.10;;;;;;;-141.50;100.00;63355.56;5094243;28;20192;-80
2022/06/14 05:40:30;;;;;;;12.57;1.80;;;;;;;-141.50;100.00;63355.56;5072330;28;20047;-80
2022/06/14 05:43:04;;;;;;;10.57;1.77;;;;;;;-141.50;100.00;63355.56;5073114;28;20186;-80
2022/06/14 05:45:40;;;;;;;9.02;1.70;;;;;;;-141.50;100.00;63355.56;5074555;28;20052;-80
2022/06/14 05:48:11;;;;;;;13.43;1.98;;;;;;;-141.50;100.00;63355.56;5055162;28;20053;-79
2022/06/14 05:50:43;;;;;;;9.60;1.50;;;;;;;-141.50;100.00;63355.56;5056247;28;20071;-78
2022/06/14 05:53:19;;;;;;;6.93;1.48;;;;;;;-141.50;100.00;63355.56;5056811;28;20079;-81
2022/06/14 05:55:52;;;;;;;9.93;1.95;;;;;;;-141.50;100.00;63355.56;5067167;28;20075;-78
2022/06/14 05:58:51;;;;;;;10.02;2.03;;;;;;;-141.50;100.00;63355.56;5089584;28;20056;-80
2022/06/14 06:01:23;;;;;;;6.35;1.50;;;;;;;-141.50;100.00;63355.56;5061076;28;20070;-78
2022/06/14 06:04:01;;;;;;;11.48;1.95;;;;;;;-141.50;100.00;63355.56;5091804;28;20048;-79
2022/06/14 06:06:39;;;;;;;8.23;1.63;;;;;;;-141.50;100.00;63355.56;5086409;28;20052;-78
2022/06/14 06:09:10;;;;;;;8.50;1.63;;;;;;;-141.50;100.00;63355.56;5085011;28;20051;-77
2022/06/14 06:11:55;;;;;;;8.60;1.70;;;;;;;-141.50;100.00;63355.56;5085340;28;20044;-80
2022/06/14 06:14:32;;;;;;;13.27;1.63;;;;;;;-141.50;100.00;63355.56;5073430;28;20048;-80
2022/06/14 06:17:28;;;;;;;9.38;1.70;;;;;;;-141.50;100.00;63355.56;5070694;28;20049;-79
2022/06/14 06:20:32;;;;;;;10.07;1.55;;;;;;;-141.50;100.00;63355.56;5057021;28;20084;-79
2022/06/14 06:23:13;;;;;;;9.35;2.05;;;;;;;-141.50;100.00;63355.56;5074347;28;20044;-80
2022/06/14 06:25:47;;;;;;;14.57;2.00;;;;;;;-141.50;100.00;63355.56;5058109;28;20067;-82
2022/06/14 06:28:21;;;;;;;7.55;1.70;;;;;;;-141.50;100.00;63355.56;5075080;28;20049;-80
2022/06/14 06:31:28;;;;;;;10.68;2.40;;;;;;;-141.50;100.00;63355.56;5064303;28;20102;-79
2022/06/14 06:33:57;;;;;;;11.07;1.90;;;;;;;-141.50;100.00;63355.56;5029582;28;20121;-81
2022/06/14 06:36:36;;;;;;;17.88;1.88;;;;;;;-141.50;100.00;63355.56;5065024;28;20113;-79
2022/06/14 06:39:24;;;;;;;8.43;1.83;;;;;;;-141.50;100.00;63355.56;5072600;28;20067;-79
2022/06/14 06:42:11;;;;;;;11.80;1.80;;;;;;;-141.50;100.00;63355.56;5072814;28;20510;-79
2022/06/14 06:44:53;;;;;;;11.40;1.88;;;;;;;-141.50;100.00;63355.56;5072508;28;20106;-80
2022/06/14 06:47:27;;;;;;;10.38;2.28;;;;;;;-141.50;100.00;63355.56;5055293;28;20048;-79
2022/06/14 06:50:01;;;;;;;12.27;1.90;;;;;;;-141.50;100.00;63355.56;5071415;28;20052;-78
2022/06/14 06:52:46;;;;;;;7.15;1.98;;;;;;;-141.50;100.00;63355.56;5072089;28;20131;-79
2022/06/14 06:55:50;;;;;;;7.82;1.55;;;;;;;-141.50;100.00;63355.56;5067813;28;20105;-79
2022/06/14 06:58:52;;;;;;;7.75;1.40;;;;;;;-141.50;100.00;63355.56;5053999;28;20045;-79
2022/06/14 07:01:31;;;;;;;6.40;1.48;;;;;;;-141.50;100.00;63355.56;5052793;28;20061;-79
2022/06/14 07:03:57;;;;;;;12.73;1.75;;;;;;;-141.50;100.00;63355.56;5078648;28;20074;-79
2022/06/14 07:06:29;;;;;;;9.02;1.65;;;;;;;-141.50;100.00;63355.56;5060218;28;20053;-79
2022/06/14 07:09:05;;;;;;;7.88;1.38;;;;;;;-141.50;100.00;63355.56;5089784;28;20076;-80
2022/06/14 07:11:44;;;;;;;8.00;1.20;;;;;;;-141.50;100.00;63355.56;5077646;28;20102;-79
2022/06/14 07:14:36;;;;;;;6.82;1.02;;;;;;;-141.50;100.00;63355.56;5079343;28;20048;-78
2022/06/14 07:17:08;;;;;;;2.92;0.82;;;;;;;-141.50;100.00;63355.56;5073871;28;20242;-80
2022/06/14 07:19:56;;;;;;;8.43;1.25;;;;;;;-141.50;100.00;63355.56;5053945;28;20561;-78
2022/06/14 07:22:31;;;;;;;5.45;1.08;;;;;;;-141.50;100.00;63355.56;5069421;28;20049;-79
2022/06/14 07:25:01;;;;;;;9.93;1.42;;;;;;;-141.50;100.00;63355.56;5053196;28;20102;-79
2022/06/14 07:28:19;;;;;;;5.88;1.60;;;;;;;-141.50;100.00;63355.56;5069725;28;20131;-79
2022/06/14 07:30:53;;;;;;;6.63;1.50;;;;;;;-141.50;100.00;63355.56;5059970;28;20102;-83
2022/06/14 07:33:24;;;;;;;6.65;1.40;;;;;;;-141.50;100.00;63355.56;5071454;28;20142;-79
2022/06/14 07:35:54;;;;;;;7.22;1.40;;;;;;;-141.50;100.00;63355.56;5053096;28;20560;-80
2022/06/14 07:38:38;;;;;;;6.93;1.67;;;;;;;-141.50;100.00;63355.56;5071181;28;20103;-79
2022/06/14 07:41:26;;;;;;;10.98;1.85;;;;;;;-141.50;100.00;63355.56;5071296;28;20072;-79
2022/06/14 07:44:03;;;;;;;7.30;1.70;;;;;;;-141.50;100.00;63355.56;5070293;28;20093;-79
2022/06/14 07:46:50;;;;;;;9.43;1.52;;;;;;;-141.50;100.00;63355.56;5071496;28;20227;-80
2022/06/14 07:49:30;;;;;;;7.35;1.30;;;;;;;-141.50;100.00;63355.56;5053803;28;20103;-80
2022/06/14 07:52:20;;;;;;;6.63;1.42;;;;;;;-141.50;100.00;63355.56;5071733;28;20525;-81
2022/06/14 07:54:57;;;;;;;9.40;1.63;;;;;;;-141.50;100.00;63355.56;5055008;28;20535;-80
2022/06/14 07:57:31;;;;;;;5.50;1.58;;;;;;;-141.50;100.00;63355.56;5087643;28;20108;-79
2022/06/14 08:03:00;;;;;;;8.13;1.70;;;;;;;-141.50;100.00;63355.56;5070520;28;20087;-78
2022/06/14 08:05:33;;;;;;;9.43;1.60;;;;;;;-141.50;100.00;63355.56;5070246;28;20152;-79
2022/06/14 08:08:04;;;;;;;10.13;1.92;;;;;;;-141.50;100.00;63355.56;5072318;28;20052;-78
2022/06/14 08:10:42;;;;;;;8.35;1.95;;;;;;;-141.50;100.00;63355.56;5075124;28;20145;-79
2022/06/14 08:13:13;;;;;;;12.50;1.50;;;;;;;-141.50;100.00;63355.56;5077186;28;20132;-79
2022/06/14 08:15:48;;;;;;;9.18;1.58;;;;;;;-141.50;100.00;63355.56;5062221;28;20044;-80
2022/06/14 08:19:00;;;;;;;8.23;1.90;;;;;;;-141.50;100.00;63355.56;5072761;28;20078;-79
2022/06/14 08:21:30;;;;;;;11.77;1.80;;;;;;;-141.50;100.00;63355.56;5050420;28;20071;-80
2022/06/14 08:24:13;;;;;;;7.57;1.45;;;;;;;-141.50;100.00;63355.56;5074132;28;20068;-77
2022/06/14 08:27:08;;;;;;;6.57;1.65;;;;;;;-141.50;100.00;63355.56;5069507;28;20054;-80
2022/06/14 08:29:35;;;;;;;9.25;1.67;;;;;;;-141.50;100.00;63355.56;5063959;28;20048;-78
2022/06/14 08:32:11;;;;;;;5.65;1.50;;;;;;;-141.50;100.00;63355.56;5080633;28;20048;-79
2022/06/14 08:34:45;;;;;;;6.32;1.33;;;;;;;-141.50;100.00;63355.56;5072748;28;20048;-82
2022/06/14 08:37:15;;;;;;;8.93;1.60;;;;;;;-141.50;100.00;63355.56;5054730;28;20582;-79
2022/06/14 08:39:49;;;;;;;12.73;2.10;;;;;;;-141.50;100.00;63355.56;5077680;28;20060;-81
2022/06/14 08:42:28;;;;;;;5.75;1.80;;;;;;;-141.50;100.00;63355.56;5074373;28;20063;-79
2022/06/14 08:45:10;;;;;;;9.65;1.75;;;;;;;-141.50;100.00;63355.56;5078578;28;20108;-80
2022/06/14 08:47:37;;;;;;;8.13;1.50;;;;;;;-141.50;100.00;63355.56;5080958;28;20091;-79
2022/06/14 08:50:18;;;;;;;4.78;1.40;;;;;;;-141.50;100.00;63355.56;5064927;28;20104;-78
2022/06/14 08:53:03;;;;;;;13.60;1.80;;;;;;;-141.50;100.00;63355.56;5106283;28;20059;-79
2022/06/14 08:55:55;;;;;;;8.32;1.90;;;;;;;-141.50;100.00;63355.56;5073936;28;20071;-80
2022/06/14 08:58:46;;;;;;;7.32;1.60;;;;;;;-141.50;100.00;63355.56;5079881;28;20048;-83
2022/06/14 09:01:53;;;;;;;10.13;1.63;;;;;;;-141.50;100.00;63355.56;5086579;28;20149;-81
2022/06/14 09:04:19;;;;;;;9.25;2.00;;;;;;;-141.50;100.00;63355.56;4976865;28;20046;-81
2022/06/14 09:07:07;;;;;;;13.65;2.03;;;;;;;-141.50;100.00;63355.56;5054486;28;20367;-81
2022/06/14 09:10:08;;;;;;;8.55;2.47;;;;;;;-141.50;100.00;63355.56;5060643;28;20091;-82
2022/06/14 09:12:54;;;;;;;8.05;2.00;;;;;;;-141.50;100.00;63355.56;5079070;28;20049;-80
2022/06/14 09:15:45;;;;;;;8.73;1.92;;;;;;;-141.50;100.00;63355.56;5076677;28;20082;-80
2022/06/14 09:18:20;;;;;;;7.20;1.70;;;;;;;-141.50;100.00;63355.56;5076004;28;20048;-82
2022/06/14 09:21:22;;;;;;;5.70;1.48;;;;;;;-141.50;100.00;63355.56;5063765;28;20054;-80
2022/06/14 09:24:18;;;;;;;7.07;1.55;;;;;;;-141.50;100.00;63355.56;5076815;28;20121;-81
2022/06/14 09:27:00;;;;;;;11.38;1.90;;;;;;;-141.50;100.00;63355.56;5075899;28;20137;-81
2022/06/14 09:30:04;;;;;;;7.78;1.80;;;;;;;-141.50;100.00;63355.56;5059240;28;20052;-80
2022/06/14 09:36:00;;;;;;;5.07;1.52;;;;;;;-141.50;100.00;63355.56;5074514;28;20074;-78
2022/06/14 09:39:03;;;;;;;9.02;1.73;;;;;;;-141.50;100.00;63355.56;5074773;28;20044;-79
2022/06/14 09:42:00;;;;;;;8.05;1.75;;;;;;;-141.50;100.00;63355.56;5079237;28;20687;-80
2022/06/14 09:44:26;;;;;;;;;;;;;;;-141.50;100.00;63355.56;5056712;28;20082;-78
2022/06/14 09:47:12;;;;;;;8.15;1.45;;;;;;;-141.50;100.00;63355.56;5057748;28;19924;-79
2022/06/14 09:50:06;;;;;;;7.25;1.70;;;;;;;-141.50;100.00;63355.56;5058080;28;20045;-81
2022/06/14 09:53:04;;;;;;;5.65;1.35;;;;;;;-141.50;100.00;63355.56;5059266;28;20052;-79
2022/06/14 09:56:04;;;;;;;6.03;1.35;;;;;;;-141.50;100.00;63355.56;5075595;28;20523;-79
2022/06/14 09:59:12;;;;;;;8.63;1.50;;;;;;;-141.50;100.00;63355.56;5056066;28;20049;-79
2022/06/14 10:01:47;;;;;;;4.82;1.50;;;;;;;-141.50;100.00;63355.56;5001685;28;20624;-82
2022/06/14 10:04:41;;;;;;;6.03;1.15;;;;;;;-141.50;100.00;63355.56;5038350;28;20168;-80
2022/06/14 10:07:26;;;;;;;4.57;1.20;;;;;;;-141.50;100.00;63355.56;5037185;28;20056;-80
2022/06/14 10:10:15;;;;;;;5.70;1.50;;;;;;;-141.50;100.00;63355.56;5057378;28;20080;-77
2022/06/14 10:13:05;;;;;;;7.75;1.63;;;;;;;-141.50;100.00;63355.56;5063909;28;20071;-76
2022/06/14 10:16:23;;;;;;;7.40;1.48;;;;;;;-141.50;100.00;63355.56;5070674;28;20067;-78
2022/06/14 10:18:52;;;;;;;5.70;1.30;;;;;;;-141.50;100.00;63355.56;4992301;28;20054;-82
2022/06/14 10:21:48;;;;;;;5.15;1.58;;;;;;;-141.50;100.00;63355.56;5067957;28;20068;-80
2022/06/14 10:24:15;;;;;;;8.00;1.60;;;;;;;-141.50;100.00;63355.56;5056038;28;20118;-80
2022/06/14 10:30:08;;;;;;;5.70;1.40;;;;;;;-141.50;100.00;63355.56;5056112;28;20084;-82
2022/06/14 10:32:40;;;;;;;8.15;1.52;;;;;;;-141.50;100.00;63355.56;5052380;28;20716;-78
2022/06/14 10:35:24;;;;;;;5.82;1.63;;;;;;;-141.50;100.00;63355.56;5051541;28;20132;-80
2022/06/14 10:38:08;;;;;;;7.47;1.30;;;;;;;-141.50;100.00;63355.56;5059435;28;20056;-80
2022/06/14 10:40:49;;;;;;;5.65;1.15;;;;;;;-141.50;100.00;63355.56;5073746;28;20075;-77
2022/06/14 10:43:31;;;;;;;8.52;1.80;;;;;;;-141.50;100.00;63355.56;5073322;28;20052;-79
2022/06/14 10:46:05;;;;;;;5.88;1.60;;;;;;;-141.50;100.00;63355.56;5072734;28;20128;-79
2022/06/14 10:48:52;;;;;;;3.60;1.20;;;;;;;-141.50;100.00;63355.56;5070409;28;20053;-78
2022/06/14 10:51:32;;;;;;;5.47;1.60;;;;;;;-141.50;100.00;63355.56;5077663;28;20053;-79
2022/06/14 10:54:04;;;;;;;;;;;;;;;-141.50;100.00;63355.56;5062807;28;20079;-77
2022/06/14 10:56:53;;;;;;;5.25;1.50;;;;;;;-141.50;100.00;63355.56;5053016;28;19927;-78
2022/06/14 10:59:43;;;;;;;4.65;1.40;;;;;;;-141.50;100.00;63355.56;5076776;28;20059;-81
2022/06/14 11:02:24;;;;;;;6.45;1.35;;;;;;;-141.50;100.00;63355.56;5068978;28;20098;-77
2022/06/14 11:05:21;;;;;;;6.47;1.35;;;;;;;-141.50;100.00;63355.56;5059693;28;20330;-78
2022/06/14 11:08:26;;;;;;;4.43;1.50;;;;;;;-141.50;100.00;63355.56;5075139;28;20113;-80
2022/06/14 11:11:17;;;;;;;7.45;1.60;;;;;;;-141.50;100.00;63355.56;5071122;28;20052;-79
2022/06/14 11:14:12;;;;;;;8.00;1.52;;;;;;;-141.50;100.00;63355.56;5072252;28;20110;-80
2022/06/14 11:16:57;;;;;;;6.10;1.70;;;;;;;-141.50;100.00;63355.56;5055269;28;20467;-79
2022/06/14 11:19:35;;;;;;;10.77;1.63;;;;;;;-141.50;100.00;63355.56;5035154;28;20083;-78
2022/06/14 11:22:10;;;;;;;6.15;1.20;;;;;;;-141.50;100.00;63355.56;5052113;28;20057;-79
2022/06/14 11:25:18;;;;;;;10.52;1.70;;;;;;;-141.50;100.00;63355.56;5035539;28;20049;-80
2022/06/14 11:27:53;;;;;;;5.45;1.40;;;;;;;-141.50;100.00;63355.56;5052207;28;20711;-78
2022/06/14 11:30:26;;;;;;;8.32;1.30;;;;;;;-141.50;100.00;63355.56;5051819;28;20657;-77
2022/06/14 11:33:07;;;;;;;6.50;1.40;;;;;;;-141.50;100.00;63355.56;5053097;28;20059;-76
2022/06/14 11:35:54;;;;;;;4.90;1.17;;;;;;;-141.50;100.00;63355.56;5060048;28;20559;-79
2022/06/14 11:38:36;;;;;;;4.63;0.90;;;;;;;-141.50;100.00;63355.56;5078923;28;20610;-78
2022/06/14 11:41:06;;;;;;;5.35;1.23;;;;;;;-141.50;100.00;63355.56;5071681;28;20048;-79
2022/06/14 11:43:44;;;;;;;7.63;1.35;;;;;;;-141.50;100.00;63355.56;5072674;28;20052;-79
2022/06/14 11:46:37;;;;;;;5.68;1.38;;;;;;;-141.50;100.00;63355.56;5072858;28;20048;-79
2022/06/14 11:49:22;;;;;;;6.13;1.30;;;;;;;-141.50;100.00;63355.56;5070349;28;20251;-78
2022/06/14 11:52:05;;;;;;;4.68;1.45;;;;;;;-141.50;100.00;63355.56;5070618;28;20105;-78
2022/06/14 11:55:30;;;;;;;5.78;1.42;;;;;;;-141.50;100.00;63355.56;5071274;28;20512;-78
2022/06/14 11:58:06;;;;;;;4.88;1.42;;;;;;;-141.50;100.00;63355.56;5030044;28;20603;-78
2022/06/14 12:00:51;;;;;;;3.67;1.35;;;;;;;-141.50;100.00;63355.56;5028836;28;20095;-78
2022/06/14 12:03:25;;;;;;;7.05;1.50;;;;;;;-141.50;100.00;63355.56;5062857;28;20049;-78
2022/06/14 12:06:24;;;;;;;6.65;1.48;;;;;;;-141.50;100.00;63355.56;5071440;28;20784;-80
2022/06/14 12:09:16;;;;;;;6.00;1.58;;;;;;;-141.50;100.00;63355.56;5071929;28;20098;-79
2022/06/14 12:11:45;;;;;;;5.70;1.45;;;;;;;-141.50;100.00;63355.56;5070907;28;20080;-79
2022/06/14 12:14:30;;;;;;;3.85;1.40;;;;;;;-141.50;100.00;63355.56;5070762;28;20053;-78
2022/06/14 12:17:13;;;;;;;5.80;1.40;;;;;;;-141.50;100.00;63355.56;5069131;28;20526;-79
2022/06/14 12:19:47;;;;;;;5.25;1.30;;;;;;;-141.50;100.00;63355.56;5070005;28;20060;-79
2022/06/14 12:22:32;;;;;;;5.10;1.65;;;;;;;-141.50;100.00;63355.56;5050713;28;20076;-78
2022/06/14 12:28:14;;;;;;;4.45;1.23;;;;;;;-141.50;100.00;63355.56;5074032;28;20056;-79
2022/06/14 12:30:47;;;;;;;4.60;1.60;;;;;;;-141.50;100.00;63355.56;5071084;28;20060;-79